sensor_id;sensor_type;location;lat;lon;timestamp;P1;durP1;ratioP1;P2;durP2;ratioP2
74974;SDS011;68459;50.836;19.138;2023-05-10T00:02:52;6.38;;;2.67;;
74974;SDS011;68459;50.836;19.138;2023-05-10T00:05:56;5.25;;;2.22;;
74974;SDS011;68459;50.836;19.138;2023-05-10T00:09:01;4.73;;;2.30;;
74974;SDS011;68459;50.836;19.138;2023-05-10T00:12:05;5.30;;;2.63;;
74974;SDS011;68459;50.836;19.138;2023-05-10T00:15:09;5.60;;;2.60;;
74974;SDS011;68459;50.836;19.138;2023-05-10T00:18:13;3.87;;;2.10;;
74974;SDS011;68459;50.836;19.138;2023-05-10T00:21:17;6.50;;;2.42;;
74974;SDS011;68459;50.836;19.138;2023-05-10T00:24:22;6.63;;;2.45;;
74974;SDS011;68459;50.836;19.138;2023-05-10T00:27:26;5.05;;;2.60;;
74974;SDS011;68459;50.836;19.138;2023-05-10T00:30:30;5.20;;;2.47;;
74974;SDS011;68459;50.836;19.138;2023-05-10T00:33:36;5.72;;;2.50;;
74974;SDS011;68459;50.836;19.138;2023-05-10T00:36:39;6.35;;;3.08;;
74974;SDS011;68459;50.836;19.138;2023-05-10T00:39:44;6.60;;;2.43;;
74974;SDS011;68459;50.836;19.138;2023-05-10T00:42:48;7.75;;;2.92;;
74974;SDS011;68459;50.836;19.138;2023-05-10T00:45:52;4.30;;;2.33;;
74974;SDS011;68459;50.836;19.138;2023-05-10T00:48:56;5.87;;;2.43;;
74974;SDS011;68459;50.836;19.138;2023-05-10T00:52:00;5.80;;;2.67;;
74974;SDS011;68459;50.836;19.138;2023-05-10T00:55:07;3.95;;;2.20;;
74974;SDS011;68459;50.836;19.138;2023-05-10T00:58:15;5.38;;;2.75;;
74974;SDS011;68459;50.836;19.138;2023-05-10T01:01:19;6.10;;;2.83;;
74974;SDS011;68459;50.836;19.138;2023-05-10T01:04:22;6.85;;;2.80;;
74974;SDS011;68459;50.836;19.138;2023-05-10T01:07:27;5.63;;;2.90;;
74974;SDS011;68459;50.836;19.138;2023-05-10T01:10:32;7.10;;;2.30;;
74974;SDS011;68459;50.836;19.138;2023-05-10T01:13:37;6.30;;;2.53;;
74974;SDS011;68459;50.836;19.138;2023-05-10T01:16:44;5.60;;;3.08;;
74974;SDS011;68459;50.836;19.138;2023-05-10T01:19:51;7.73;;;2.83;;
74974;SDS011;68459;50.836;19.138;2023-05-10T01:23:04;5.88;;;2.67;;
74974;SDS011;68459;50.836;19.138;2023-05-10T01:30:33;5.20;;;2.35;;
74974;SDS011;68459;50.836;19.138;2023-05-10T01:34:07;4.65;;;2.28;;
74974;SDS011;68459;50.836;19.138;2023-05-10T01:37:20;4.40;;;2.72;;
74974;SDS011;68459;50.836;19.138;2023-05-10T01:40:32;6.40;;;2.40;;
74974;SDS011;68459;50.836;19.138;2023-05-10T01:43:45;4.50;;;2.50;;
74974;SDS011;68459;50.836;19.138;2023-05-10T01:47:04;7.30;;;2.55;;
74974;SDS011;68459;50.836;19.138;2023-05-10T01:50:17;5.20;;;2.58;;
74974;SDS011;68459;50.836;19.138;2023-05-10T01:53:33;9.60;;;2.73;;
74974;SDS011;68459;50.836;19.138;2023-05-10T01:56:41;4.30;;;2.50;;
74974;SDS011;68459;50.836;19.138;2023-05-10T01:59:50;7.95;;;2.85;;
74974;SDS011;68459;50.836;19.138;2023-05-10T02:02:56;6.45;;;3.15;;
74974;SDS011;68459;50.836;19.138;2023-05-10T02:06:04;5.03;;;2.88;;
74974;SDS011;68459;50.836;19.138;2023-05-10T02:09:10;6.20;;;2.53;;
74974;SDS011;68459;50.836;19.138;2023-05-10T02:12:17;5.15;;;2.78;;
74974;SDS011;68459;50.836;19.138;2023-05-10T02:15:23;5.03;;;2.53;;
74974;SDS011;68459;50.836;19.138;2023-05-10T02:18:30;5.28;;;2.47;;
74974;SDS011;68459;50.836;19.138;2023-05-10T02:21:38;7.40;;;2.45;;
74974;SDS011;68459;50.836;19.138;2023-05-10T02:24:44;4.50;;;2.47;;
74974;SDS011;68459;50.836;19.138;2023-05-10T02:27:51;6.63;;;2.70;;
74974;SDS011;68459;50.836;19.138;2023-05-10T02:30:59;5.95;;;2.78;;
74974;SDS011;68459;50.836;19.138;2023-05-10T02:34:04;5.30;;;2.35;;
74974;SDS011;68459;50.836;19.138;2023-05-10T02:37:12;8.00;;;3.20;;
74974;SDS011;68459;50.836;19.138;2023-05-10T02:40:20;6.15;;;2.70;;
74974;SDS011;68459;50.836;19.138;2023-05-10T02:43:30;5.25;;;2.78;;
74974;SDS011;68459;50.836;19.138;2023-05-10T02:46:37;7.47;;;3.00;;
74974;SDS011;68459;50.836;19.138;2023-05-10T02:49:42;5.97;;;2.78;;
74974;SDS011;68459;50.836;19.138;2023-05-10T02:52:48;4.43;;;2.53;;
74974;SDS011;68459;50.836;19.138;2023-05-10T02:55:58;5.77;;;3.07;;
74974;SDS011;68459;50.836;19.138;2023-05-10T02:59:08;6.65;;;2.58;;
74974;SDS011;68459;50.836;19.138;2023-05-10T03:02:13;9.05;;;2.92;;
74974;SDS011;68459;50.836;19.138;2023-05-10T03:05:18;8.55;;;3.10;;
74974;SDS011;68459;50.836;19.138;2023-05-10T03:08:23;5.03;;;2.70;;
74974;SDS011;68459;50.836;19.138;2023-05-10T03:11:30;4.78;;;3.00;;
74974;SDS011;68459;50.836;19.138;2023-05-10T03:14:53;4.38;;;2.45;;
74974;SDS011;68459;50.836;19.138;2023-05-10T03:18:06;6.63;;;2.50;;
74974;SDS011;68459;50.836;19.138;2023-05-10T03:21:16;5.35;;;2.50;;
74974;SDS011;68459;50.836;19.138;2023-05-10T03:24:27;5.15;;;2.83;;
74974;SDS011;68459;50.836;19.138;2023-05-10T03:27:34;4.23;;;2.60;;
74974;SDS011;68459;50.836;19.138;2023-05-10T03:30:42;9.02;;;2.78;;
74974;SDS011;68459;50.836;19.138;2023-05-10T03:33:47;6.25;;;2.90;;
74974;SDS011;68459;50.836;19.138;2023-05-10T03:36:57;8.73;;;2.90;;
74974;SDS011;68459;50.836;19.138;2023-05-10T03:40:07;5.80;;;2.63;;
74974;SDS011;68459;50.836;19.138;2023-05-10T03:43:15;4.35;;;2.55;;
74974;SDS011;68459;50.836;19.138;2023-05-10T03:46:19;5.13;;;3.17;;
74974;SDS011;68459;50.836;19.138;2023-05-10T03:49:23;8.10;;;2.80;;
74974;SDS011;68459;50.836;19.138;2023-05-10T03:52:27;5.63;;;2.67;;
74974;SDS011;68459;50.836;19.138;2023-05-10T03:55:32;4.55;;;2.45;;
74974;SDS011;68459;50.836;19.138;2023-05-10T03:58:38;9.10;;;2.70;;
74974;SDS011;68459;50.836;19.138;2023-05-10T04:01:42;5.32;;;2.65;;
74974;SDS011;68459;50.836;19.138;2023-05-10T04:04:45;6.47;;;2.58;;
74974;SDS011;68459;50.836;19.138;2023-05-10T04:07:49;3.80;;;2.60;;
74974;SDS011;68459;50.836;19.138;2023-05-10T04:10:54;6.22;;;2.78;;
74974;SDS011;68459;50.836;19.138;2023-05-10T04:14:08;3.78;;;2.60;;
74974;SDS011;68459;50.836;19.138;2023-05-10T04:17:12;6.45;;;3.20;;
74974;SDS011;68459;50.836;19.138;2023-05-10T04:20:15;6.03;;;2.77;;
74974;SDS011;68459;50.836;19.138;2023-05-10T04:23:19;5.60;;;2.90;;
74974;SDS011;68459;50.836;19.138;2023-05-10T04:26:25;5.63;;;2.60;;
74974;SDS011;68459;50.836;19.138;2023-05-10T04:29:29;7.30;;;2.60;;
74974;SDS011;68459;50.836;19.138;2023-05-10T04:32:32;4.88;;;2.50;;
74974;SDS011;68459;50.836;19.138;2023-05-10T04:35:36;4.20;;;2.50;;
74974;SDS011;68459;50.836;19.138;2023-05-10T04:38:41;5.72;;;3.28;;
74974;SDS011;68459;50.836;19.138;2023-05-10T04:41:46;8.45;;;3.10;;
74974;SDS011;68459;50.836;19.138;2023-05-10T04:44:50;7.18;;;2.55;;
74974;SDS011;68459;50.836;19.138;2023-05-10T04:47:54;5.35;;;2.88;;
74974;SDS011;68459;50.836;19.138;2023-05-10T04:50:58;4.83;;;2.63;;
74974;SDS011;68459;50.836;19.138;2023-05-10T04:54:01;8.45;;;2.60;;
74974;SDS011;68459;50.836;19.138;2023-05-10T04:57:09;7.22;;;2.80;;
74974;SDS011;68459;50.836;19.138;2023-05-10T05:00:13;6.10;;;2.80;;
74974;SDS011;68459;50.836;19.138;2023-05-10T05:03:18;5.82;;;2.72;;
74974;SDS011;68459;50.836;19.138;2023-05-10T05:06:21;4.72;;;2.60;;
74974;SDS011;68459;50.836;19.138;2023-05-10T05:09:26;6.87;;;2.57;;
74974;SDS011;68459;50.836;19.138;2023-05-10T05:12:31;5.55;;;2.35;;
74974;SDS011;68459;50.836;19.138;2023-05-10T05:15:35;5.45;;;2.92;;
74974;SDS011;68459;50.836;19.138;2023-05-10T05:18:38;5.68;;;2.55;;
74974;SDS011;68459;50.836;19.138;2023-05-10T05:21:42;5.50;;;3.00;;
74974;SDS011;68459;50.836;19.138;2023-05-10T05:24:46;4.63;;;2.45;;
74974;SDS011;68459;50.836;19.138;2023-05-10T05:27:51;4.68;;;2.70;;
74974;SDS011;68459;50.836;19.138;2023-05-10T05:30:54;6.17;;;3.07;;
74974;SDS011;68459;50.836;19.138;2023-05-10T05:33:58;5.28;;;2.63;;
74974;SDS011;68459;50.836;19.138;2023-05-10T05:37:02;4.72;;;2.65;;
74974;SDS011;68459;50.836;19.138;2023-05-10T05:40:05;9.52;;;2.92;;
74974;SDS011;68459;50.836;19.138;2023-05-10T05:43:12;4.55;;;2.50;;
74974;SDS011;68459;50.836;19.138;2023-05-10T05:46:15;5.13;;;2.65;;
74974;SDS011;68459;50.836;19.138;2023-05-10T05:49:19;4.95;;;2.65;;
74974;SDS011;68459;50.836;19.138;2023-05-10T05:52:23;5.40;;;2.70;;
74974;SDS011;68459;50.836;19.138;2023-05-10T05:55:26;4.22;;;2.67;;
74974;SDS011;68459;50.836;19.138;2023-05-10T05:58:32;4.57;;;2.42;;
74974;SDS011;68459;50.836;19.138;2023-05-10T06:01:36;3.53;;;2.20;;
74974;SDS011;68459;50.836;19.138;2023-05-10T06:04:39;5.90;;;2.83;;
74974;SDS011;68459;50.836;19.138;2023-05-10T06:07:45;4.00;;;2.20;;
74974;SDS011;68459;50.836;19.138;2023-05-10T06:10:49;6.13;;;2.92;;
74974;SDS011;68459;50.836;19.138;2023-05-10T06:13:54;5.47;;;2.20;;
74974;SDS011;68459;50.836;19.138;2023-05-10T06:16:58;6.20;;;2.72;;
74974;SDS011;68459;50.836;19.138;2023-05-10T06:20:01;5.88;;;2.38;;
74974;SDS011;68459;50.836;19.138;2023-05-10T06:23:07;5.00;;;2.17;;
74974;SDS011;68459;50.836;19.138;2023-05-10T06:26:10;8.85;;;2.72;;
74974;SDS011;68459;50.836;19.138;2023-05-10T06:29:17;4.53;;;2.70;;
74974;SDS011;68459;50.836;19.138;2023-05-10T06:32:20;10.07;;;5.90;;
74974;SDS011;68459;50.836;19.138;2023-05-10T06:35:24;5.57;;;2.55;;
74974;SDS011;68459;50.836;19.138;2023-05-10T06:38:28;6.47;;;2.72;;
74974;SDS011;68459;50.836;19.138;2023-05-10T06:41:31;6.80;;;2.72;;
74974;SDS011;68459;50.836;19.138;2023-05-10T06:44:36;5.45;;;2.90;;
74974;SDS011;68459;50.836;19.138;2023-05-10T06:47:40;12.15;;;2.55;;
74974;SDS011;68459;50.836;19.138;2023-05-10T06:50:44;4.65;;;2.40;;
74974;SDS011;68459;50.836;19.138;2023-05-10T06:53:48;7.80;;;2.63;;
74974;SDS011;68459;50.836;19.138;2023-05-10T06:56:51;8.77;;;2.97;;
74974;SDS011;68459;50.836;19.138;2023-05-10T06:59:57;6.28;;;2.50;;
74974;SDS011;68459;50.836;19.138;2023-05-10T07:03:00;6.70;;;2.40;;
74974;SDS011;68459;50.836;19.138;2023-05-10T07:06:04;4.38;;;2.55;;
74974;SDS011;68459;50.836;19.138;2023-05-10T07:09:19;10.88;;;2.78;;
74974;SDS011;68459;50.836;19.138;2023-05-10T07:12:22;5.18;;;2.90;;
74974;SDS011;68459;50.836;19.138;2023-05-10T07:15:28;4.68;;;2.53;;
74974;SDS011;68459;50.836;19.138;2023-05-10T07:18:31;4.43;;;2.58;;
74974;SDS011;68459;50.836;19.138;2023-05-10T07:21:35;5.75;;;2.65;;
74974;SDS011;68459;50.836;19.138;2023-05-10T07:24:39;4.77;;;3.13;;
74974;SDS011;68459;50.836;19.138;2023-05-10T07:27:43;7.53;;;4.22;;
74974;SDS011;68459;50.836;19.138;2023-05-10T07:30:48;5.30;;;2.45;;
74974;SDS011;68459;50.836;19.138;2023-05-10T07:33:51;4.47;;;2.27;;
74974;SDS011;68459;50.836;19.138;2023-05-10T07:36:56;5.45;;;2.70;;
74974;SDS011;68459;50.836;19.138;2023-05-10T07:40:02;6.03;;;3.03;;
74974;SDS011;68459;50.836;19.138;2023-05-10T07:43:06;6.20;;;2.70;;
74974;SDS011;68459;50.836;19.138;2023-05-10T07:46:11;4.43;;;2.15;;
74974;SDS011;68459;50.836;19.138;2023-05-10T07:49:14;6.30;;;3.50;;
74974;SDS011;68459;50.836;19.138;2023-05-10T07:52:18;3.80;;;2.40;;
74974;SDS011;68459;50.836;19.138;2023-05-10T07:55:23;4.77;;;2.27;;
74974;SDS011;68459;50.836;19.138;2023-05-10T07:58:27;4.72;;;2.28;;
74974;SDS011;68459;50.836;19.138;2023-05-10T08:01:33;5.40;;;2.58;;
74974;SDS011;68459;50.836;19.138;2023-05-10T08:04:37;4.80;;;2.87;;
74974;SDS011;68459;50.836;19.138;2023-05-10T08:07:41;8.10;;;4.22;;
74974;SDS011;68459;50.836;19.138;2023-05-10T08:10:44;5.15;;;2.25;;
74974;SDS011;68459;50.836;19.138;2023-05-10T08:13:49;6.03;;;2.10;;
74974;SDS011;68459;50.836;19.138;2023-05-10T08:16:55;5.03;;;2.08;;
74974;SDS011;68459;50.836;19.138;2023-05-10T08:19:59;5.13;;;2.05;;
74974;SDS011;68459;50.836;19.138;2023-05-10T08:23:03;3.92;;;1.90;;
74974;SDS011;68459;50.836;19.138;2023-05-10T08:26:06;2.97;;;1.80;;
74974;SDS011;68459;50.836;19.138;2023-05-10T08:29:10;4.53;;;2.03;;
74974;SDS011;68459;50.836;19.138;2023-05-10T08:32:15;6.57;;;2.22;;
74974;SDS011;68459;50.836;19.138;2023-05-10T08:35:18;5.80;;;2.30;;
74974;SDS011;68459;50.836;19.138;2023-05-10T08:38:22;2.83;;;1.60;;
74974;SDS011;68459;50.836;19.138;2023-05-10T08:41:26;3.10;;;1.58;;
74974;SDS011;68459;50.836;19.138;2023-05-10T08:44:31;18.70;;;2.45;;
74974;SDS011;68459;50.836;19.138;2023-05-10T08:47:39;7.63;;;1.90;;
74974;SDS011;68459;50.836;19.138;2023-05-10T08:50:44;3.13;;;1.65;;
74974;SDS011;68459;50.836;19.138;2023-05-10T08:53:50;2.83;;;1.52;;
74974;SDS011;68459;50.836;19.138;2023-05-10T08:56:54;4.70;;;1.60;;
74974;SDS011;68459;50.836;19.138;2023-05-10T08:59:58;3.55;;;1.40;;
74974;SDS011;68459;50.836;19.138;2023-05-10T09:03:05;4.80;;;2.08;;
74974;SDS011;68459;50.836;19.138;2023-05-10T09:06:09;5.10;;;1.80;;
74974;SDS011;68459;50.836;19.138;2023-05-10T09:09:16;3.08;;;1.67;;
74974;SDS011;68459;50.836;19.138;2023-05-10T09:12:20;3.60;;;1.80;;
74974;SDS011;68459;50.836;19.138;2023-05-10T09:15:24;2.58;;;1.20;;
74974;SDS011;68459;50.836;19.138;2023-05-10T09:18:29;5.55;;;1.58;;
74974;SDS011;68459;50.836;19.138;2023-05-10T09:21:34;8.25;;;2.85;;
74974;SDS011;68459;50.836;19.138;2023-05-10T09:24:39;4.95;;;2.13;;
74974;SDS011;68459;50.836;19.138;2023-05-10T09:27:47;5.00;;;1.30;;
74974;SDS011;68459;50.836;19.138;2023-05-10T09:30:52;2.45;;;1.70;;
74974;SDS011;68459;50.836;19.138;2023-05-10T09:33:58;6.32;;;1.90;;
74974;SDS011;68459;50.836;19.138;2023-05-10T09:37:02;2.87;;;1.63;;
74974;SDS011;68459;50.836;19.138;2023-05-10T09:40:07;2.88;;;1.45;;
74974;SDS011;68459;50.836;19.138;2023-05-10T09:43:15;3.35;;;1.63;;
74974;SDS011;68459;50.836;19.138;2023-05-10T09:46:19;3.80;;;1.38;;
74974;SDS011;68459;50.836;19.138;2023-05-10T09:49:23;4.10;;;1.70;;
74974;SDS011;68459;50.836;19.138;2023-05-10T09:52:27;6.43;;;2.83;;
74974;SDS011;68459;50.836;19.138;2023-05-10T09:55:38;5.13;;;2.13;;
74974;SDS011;68459;50.836;19.138;2023-05-10T09:58:44;3.03;;;1.50;;
74974;SDS011;68459;50.836;19.138;2023-05-10T10:01:51;8.63;;;4.30;;
74974;SDS011;68459;50.836;19.138;2023-05-10T10:04:57;3.25;;;1.60;;
74974;SDS011;68459;50.836;19.138;2023-05-10T10:08:04;2.57;;;1.20;;
74974;SDS011;68459;50.836;19.138;2023-05-10T10:11:08;5.78;;;1.33;;
74974;SDS011;68459;50.836;19.138;2023-05-10T10:14:11;4.03;;;1.45;;
74974;SDS011;68459;50.836;19.138;2023-05-10T10:17:16;5.82;;;1.58;;
74974;SDS011;68459;50.836;19.138;2023-05-10T10:20:24;4.68;;;1.60;;
74974;SDS011;68459;50.836;19.138;2023-05-10T10:23:29;4.53;;;1.45;;
74974;SDS011;68459;50.836;19.138;2023-05-10T10:26:32;2.80;;;1.38;;
74974;SDS011;68459;50.836;19.138;2023-05-10T10:29:42;8.67;;;2.40;;
74974;SDS011;68459;50.836;19.138;2023-05-10T10:33:06;2.53;;;1.20;;
74974;SDS011;68459;50.836;19.138;2023-05-10T10:36:40;3.00;;;1.25;;
74974;SDS011;68459;50.836;19.138;2023-05-10T10:39:47;2.45;;;1.38;;
74974;SDS011;68459;50.836;19.138;2023-05-10T10:42:52;3.05;;;1.60;;
74974;SDS011;68459;50.836;19.138;2023-05-10T10:46:09;4.65;;;1.60;;
74974;SDS011;68459;50.836;19.138;2023-05-10T10:49:16;4.90;;;1.35;;
74974;SDS011;68459;50.836;19.138;2023-05-10T10:52:24;3.97;;;1.25;;
74974;SDS011;68459;50.836;19.138;2023-05-10T10:55:31;2.50;;;1.23;;
74974;SDS011;68459;50.836;19.138;2023-05-10T10:58:35;3.72;;;1.48;;
74974;SDS011;68459;50.836;19.138;2023-05-10T11:01:41;2.15;;;1.20;;
74974;SDS011;68459;50.836;19.138;2023-05-10T11:04:46;3.15;;;1.30;;
74974;SDS011;68459;50.836;19.138;2023-05-10T11:07:54;2.60;;;1.40;;
74974;SDS011;68459;50.836;19.138;2023-05-10T11:11:04;2.75;;;1.40;;
74974;SDS011;68459;50.836;19.138;2023-05-10T11:14:10;3.85;;;1.42;;
74974;SDS011;68459;50.836;19.138;2023-05-10T11:17:22;3.45;;;1.40;;
74974;SDS011;68459;50.836;19.138;2023-05-10T11:20:28;4.67;;;1.47;;
74974;SDS011;68459;50.836;19.138;2023-05-10T11:23:49;2.70;;;1.15;;
74974;SDS011;68459;50.836;19.138;2023-05-10T11:26:57;6.93;;;1.70;;
74974;SDS011;68459;50.836;19.138;2023-05-10T11:30:04;5.85;;;1.52;;
74974;SDS011;68459;50.836;19.138;2023-05-10T11:33:09;5.50;;;2.03;;
74974;SDS011;68459;50.836;19.138;2023-05-10T11:36:18;8.10;;;1.90;;
74974;SDS011;68459;50.836;19.138;2023-05-10T11:39:27;2.60;;;1.60;;
74974;SDS011;68459;50.836;19.138;2023-05-10T11:42:32;4.15;;;1.67;;
74974;SDS011;68459;50.836;19.138;2023-05-10T11:45:36;3.43;;;1.27;;
74974;SDS011;68459;50.836;19.138;2023-05-10T11:48:40;3.05;;;1.42;;
74974;SDS011;68459;50.836;19.138;2023-05-10T11:51:45;4.65;;;1.60;;
74974;SDS011;68459;50.836;19.138;2023-05-10T11:54:52;3.05;;;1.48;;
74974;SDS011;68459;50.836;19.138;2023-05-10T11:58:01;2.70;;;1.42;;
74974;SDS011;68459;50.836;19.138;2023-05-10T12:01:06;3.23;;;1.33;;
74974;SDS011;68459;50.836;19.138;2023-05-10T12:04:12;2.45;;;1.27;;
74974;SDS011;68459;50.836;19.138;2023-05-10T12:07:16;3.20;;;1.77;;
74974;SDS011;68459;50.836;19.138;2023-05-10T12:10:25;2.92;;;1.38;;
74974;SDS011;68459;50.836;19.138;2023-05-10T12:13:30;2.10;;;1.30;;
74974;SDS011;68459;50.836;19.138;2023-05-10T12:16:33;2.70;;;1.30;;
74974;SDS011;68459;50.836;19.138;2023-05-10T12:19:38;3.47;;;1.38;;
74974;SDS011;68459;50.836;19.138;2023-05-10T12:22:46;4.38;;;1.33;;
74974;SDS011;68459;50.836;19.138;2023-05-10T12:25:53;2.25;;;1.17;;
74974;SDS011;68459;50.836;19.138;2023-05-10T12:29:13;2.80;;;1.40;;
74974;SDS011;68459;50.836;19.138;2023-05-10T12:32:19;3.72;;;1.60;;
74974;SDS011;68459;50.836;19.138;2023-05-10T12:35:22;3.95;;;1.30;;
74974;SDS011;68459;50.836;19.138;2023-05-10T12:38:27;5.70;;;1.38;;
74974;SDS011;68459;50.836;19.138;2023-05-10T12:41:34;3.33;;;1.10;;
74974;SDS011;68459;50.836;19.138;2023-05-10T12:44:38;2.28;;;1.30;;
74974;SDS011;68459;50.836;19.138;2023-05-10T12:47:42;2.40;;;1.17;;
74974;SDS011;68459;50.836;19.138;2023-05-10T12:50:45;3.13;;;1.70;;
74974;SDS011;68459;50.836;19.138;2023-05-10T12:53:50;3.70;;;1.30;;
74974;SDS011;68459;50.836;19.138;2023-05-10T12:56:54;4.80;;;1.30;;
74974;SDS011;68459;50.836;19.138;2023-05-10T12:59:58;3.17;;;1.40;;
74974;SDS011;68459;50.836;19.138;2023-05-10T13:03:02;3.92;;;1.30;;
74974;SDS011;68459;50.836;19.138;2023-05-10T13:06:07;5.53;;;1.30;;
74974;SDS011;68459;50.836;19.138;2023-05-10T13:09:10;2.25;;;1.10;;
74974;SDS011;68459;50.836;19.138;2023-05-10T13:12:15;2.27;;;1.20;;
74974;SDS011;68459;50.836;19.138;2023-05-10T13:15:18;4.15;;;1.20;;
74974;SDS011;68459;50.836;19.138;2023-05-10T13:18:22;3.33;;;1.42;;
74974;SDS011;68459;50.836;19.138;2023-05-10T13:21:28;4.93;;;1.30;;
74974;SDS011;68459;50.836;19.138;2023-05-10T13:24:32;3.55;;;1.25;;
74974;SDS011;68459;50.836;19.138;2023-05-10T13:27:37;2.33;;;1.03;;
74974;SDS011;68459;50.836;19.138;2023-05-10T13:30:40;3.10;;;1.00;;
74974;SDS011;68459;50.836;19.138;2023-05-10T13:33:44;3.45;;;1.30;;
74974;SDS011;68459;50.836;19.138;2023-05-10T13:36:48;6.95;;;1.40;;
74974;SDS011;68459;50.836;19.138;2023-05-10T13:39:51;6.35;;;1.83;;
74974;SDS011;68459;50.836;19.138;2023-05-10T13:42:56;5.07;;;1.60;;
74974;SDS011;68459;50.836;19.138;2023-05-10T13:46:00;16.75;;;2.08;;
74974;SDS011;68459;50.836;19.138;2023-05-10T13:49:04;6.35;;;1.65;;
74974;SDS011;68459;50.836;19.138;2023-05-10T13:52:08;2.20;;;1.20;;
74974;SDS011;68459;50.836;19.138;2023-05-10T13:55:12;2.38;;;1.20;;
74974;SDS011;68459;50.836;19.138;2023-05-10T13:59:31;2.07;;;1.20;;
74974;SDS011;68459;50.836;19.138;2023-05-10T14:02:34;2.55;;;1.02;;
74974;SDS011;68459;50.836;19.138;2023-05-10T14:05:38;19.30;;;1.95;;
74974;SDS011;68459;50.836;19.138;2023-05-10T14:08:42;2.70;;;1.10;;
74974;SDS011;68459;50.836;19.138;2023-05-10T14:11:45;2.47;;;1.00;;
74974;SDS011;68459;50.836;19.138;2023-05-10T14:14:50;2.97;;;0.87;;
74974;SDS011;68459;50.836;19.138;2023-05-10T14:17:55;8.07;;;1.30;;
74974;SDS011;68459;50.836;19.138;2023-05-10T14:20:58;2.13;;;1.17;;
74974;SDS011;68459;50.836;19.138;2023-05-10T14:24:02;15.00;;;2.08;;
74974;SDS011;68459;50.836;19.138;2023-05-10T14:27:06;3.05;;;1.00;;
74974;SDS011;68459;50.836;19.138;2023-05-10T14:30:11;4.30;;;1.40;;
74974;SDS011;68459;50.836;19.138;2023-05-10T14:33:16;2.20;;;0.95;;
74974;SDS011;68459;50.836;19.138;2023-05-10T14:36:20;2.28;;;1.15;;
74974;SDS011;68459;50.836;19.138;2023-05-10T14:39:24;1.92;;;1.10;;
74974;SDS011;68459;50.836;19.138;2023-05-10T14:42:31;2.58;;;1.10;;
74974;SDS011;68459;50.836;19.138;2023-05-10T14:45:36;2.30;;;1.43;;
74974;SDS011;68459;50.836;19.138;2023-05-10T14:48:40;2.53;;;1.08;;
74974;SDS011;68459;50.836;19.138;2023-05-10T14:51:43;3.08;;;1.30;;
74974;SDS011;68459;50.836;19.138;2023-05-10T14:55:06;2.78;;;1.17;;
74974;SDS011;68459;50.836;19.138;2023-05-10T14:58:11;2.55;;;1.38;;
74974;SDS011;68459;50.836;19.138;2023-05-10T15:01:16;2.17;;;1.03;;
74974;SDS011;68459;50.836;19.138;2023-05-10T15:04:21;3.42;;;1.20;;
74974;SDS011;68459;50.836;19.138;2023-05-10T15:07:27;2.03;;;1.15;;
74974;SDS011;68459;50.836;19.138;2023-05-10T15:10:33;2.20;;;1.10;;
74974;SDS011;68459;50.836;19.138;2023-05-10T15:13:36;2.50;;;1.38;;
74974;SDS011;68459;50.836;19.138;2023-05-10T15:16:41;5.80;;;1.70;;
74974;SDS011;68459;50.836;19.138;2023-05-10T15:19:45;2.95;;;1.00;;
74974;SDS011;68459;50.836;19.138;2023-05-10T15:22:48;2.75;;;1.15;;
74974;SDS011;68459;50.836;19.138;2023-05-10T15:25:52;3.50;;;1.02;;
74974;SDS011;68459;50.836;19.138;2023-05-10T15:28:57;2.10;;;1.10;;
74974;SDS011;68459;50.836;19.138;2023-05-10T15:32:02;2.43;;;1.00;;
74974;SDS011;68459;50.836;19.138;2023-05-10T15:35:07;4.30;;;1.20;;
74974;SDS011;68459;50.836;19.138;2023-05-10T15:38:12;2.25;;;0.98;;
74974;SDS011;68459;50.836;19.138;2023-05-10T15:41:15;2.35;;;1.30;;
74974;SDS011;68459;50.836;19.138;2023-05-10T15:44:19;1.67;;;1.08;;
74974;SDS011;68459;50.836;19.138;2023-05-10T15:47:25;3.07;;;1.27;;
74974;SDS011;68459;50.836;19.138;2023-05-10T15:50:29;3.10;;;1.40;;
74974;SDS011;68459;50.836;19.138;2023-05-10T15:53:33;3.75;;;1.30;;
74974;SDS011;68459;50.836;19.138;2023-05-10T15:56:36;3.72;;;1.13;;
74974;SDS011;68459;50.836;19.138;2023-05-10T15:59:40;2.38;;;1.10;;
74974;SDS011;68459;50.836;19.138;2023-05-10T16:02:46;3.43;;;1.30;;
74974;SDS011;68459;50.836;19.138;2023-05-10T16:05:49;5.50;;;1.10;;
74974;SDS011;68459;50.836;19.138;2023-05-10T16:08:53;2.70;;;1.23;;
74974;SDS011;68459;50.836;19.138;2023-05-10T16:11:57;6.75;;;1.15;;
74974;SDS011;68459;50.836;19.138;2023-05-10T16:15:00;3.05;;;1.30;;
74974;SDS011;68459;50.836;19.138;2023-05-10T16:18:06;2.87;;;1.20;;
74974;SDS011;68459;50.836;19.138;2023-05-10T16:21:09;2.08;;;1.35;;
74974;SDS011;68459;50.836;19.138;2023-05-10T16:24:13;2.97;;;1.20;;
74974;SDS011;68459;50.836;19.138;2023-05-10T16:27:17;1.95;;;1.17;;
74974;SDS011;68459;50.836;19.138;2023-05-10T16:30:20;6.15;;;1.23;;
74974;SDS011;68459;50.836;19.138;2023-05-10T16:33:26;4.00;;;1.47;;
74974;SDS011;68459;50.836;19.138;2023-05-10T16:36:30;3.45;;;1.52;;
74974;SDS011;68459;50.836;19.138;2023-05-10T16:39:34;5.15;;;1.85;;
74974;SDS011;68459;50.836;19.138;2023-05-10T16:42:38;3.95;;;1.20;;
74974;SDS011;68459;50.836;19.138;2023-05-10T16:45:41;2.28;;;1.25;;
74974;SDS011;68459;50.836;19.138;2023-05-10T16:48:46;2.97;;;1.60;;
74974;SDS011;68459;50.836;19.138;2023-05-10T16:51:50;2.15;;;1.15;;
74974;SDS011;68459;50.836;19.138;2023-05-10T16:54:54;1.80;;;1.10;;
74974;SDS011;68459;50.836;19.138;2023-05-10T16:57:58;2.90;;;1.30;;
74974;SDS011;68459;50.836;19.138;2023-05-10T17:01:03;3.83;;;1.60;;
74974;SDS011;68459;50.836;19.138;2023-05-10T17:04:09;4.83;;;1.90;;
74974;SDS011;68459;50.836;19.138;2023-05-10T17:07:13;3.25;;;1.60;;
74974;SDS011;68459;50.836;19.138;2023-05-10T17:10:19;2.97;;;1.50;;
74974;SDS011;68459;50.836;19.138;2023-05-10T17:13:23;3.13;;;1.60;;
74974;SDS011;68459;50.836;19.138;2023-05-10T17:16:28;4.07;;;2.10;;
74974;SDS011;68459;50.836;19.138;2023-05-10T17:19:33;5.03;;;1.97;;
74974;SDS011;68459;50.836;19.138;2023-05-10T17:22:38;5.78;;;2.15;;
74974;SDS011;68459;50.836;19.138;2023-05-10T17:25:42;3.45;;;1.65;;
74974;SDS011;68459;50.836;19.138;2023-05-10T17:28:45;2.63;;;1.60;;
74974;SDS011;68459;50.836;19.138;2023-05-10T17:31:49;2.90;;;1.60;;
74974;SDS011;68459;50.836;19.138;2023-05-10T17:34:54;3.67;;;1.40;;
74974;SDS011;68459;50.836;19.138;2023-05-10T17:37:58;2.67;;;1.65;;
74974;SDS011;68459;50.836;19.138;2023-05-10T17:41:02;3.75;;;1.60;;
74974;SDS011;68459;50.836;19.138;2023-05-10T17:44:06;4.22;;;1.65;;
74974;SDS011;68459;50.836;19.138;2023-05-10T17:47:10;3.58;;;1.63;;
74974;SDS011;68459;50.836;19.138;2023-05-10T17:50:15;4.77;;;1.60;;
74974;SDS011;68459;50.836;19.138;2023-05-10T17:53:19;4.55;;;2.00;;
74974;SDS011;68459;50.836;19.138;2023-05-10T17:56:23;5.60;;;2.08;;
74974;SDS011;68459;50.836;19.138;2023-05-10T17:59:27;4.60;;;1.85;;
74974;SDS011;68459;50.836;19.138;2023-05-10T18:02:31;2.83;;;1.63;;
74974;SDS011;68459;50.836;19.138;2023-05-10T18:05:38;3.80;;;1.73;;
74974;SDS011;68459;50.836;19.138;2023-05-10T18:08:41;4.05;;;1.77;;
74974;SDS011;68459;50.836;19.138;2023-05-10T18:11:45;4.70;;;2.00;;
74974;SDS011;68459;50.836;19.138;2023-05-10T18:14:49;3.95;;;1.95;;
74974;SDS011;68459;50.836;19.138;2023-05-10T18:17:53;5.83;;;1.90;;
74974;SDS011;68459;50.836;19.138;2023-05-10T18:20:58;4.47;;;1.73;;
74974;SDS011;68459;50.836;19.138;2023-05-10T18:24:02;4.43;;;1.80;;
74974;SDS011;68459;50.836;19.138;2023-05-10T18:27:07;3.40;;;1.88;;